Pouch Cove, Canada
Current Conditions -  °F | °C
As of 5:00 PM on Sunday 21 Dec 2014 (Local Time) from CYYT Reporting Station
Overcast Overcast  
Wind Chill: 20°   Ceiling: 1800
Heat Index: 27°   Visibility: 15mi
Dew Point: 21°   Wind: 6mph
Humidity: 80%   Direction: 340°NNW
Pressure: 30.25"   Gusts: NA
Location:  47.76°N, 52.76°W
Report Text: CYYT 212000Z 34005KT 15SM OVC018 M03/M06 A3025 RMK SC8 SLP251
Loading
Personal Weather Stations






























Interactive Weather Map New forecast layout! Learn more

10-Day Weather Forecast

Advertisements
Track Severe Weather on mobile